sensor_id;sensor_type;location;lat;lon;timestamp;pressure;altitude;pressure_sealevel;temperature;humidity
75013;BME280;63567;49.956;20.130;2023-05-10T00:00:04;97324.66;;;8.01;56.01
75013;BME280;63567;49.956;20.130;2023-05-10T00:02:30;97326.78;;;7.97;56.06
75013;BME280;63567;49.956;20.130;2023-05-10T00:04:55;97322.03;;;7.93;56.16
75013;BME280;63567;49.956;20.130;2023-05-10T00:07:20;97323.03;;;7.92;56.52
75013;BME280;63567;49.956;20.130;2023-05-10T00:09:46;97312.19;;;7.87;56.13
75013;BME280;63567;49.956;20.130;2023-05-10T00:12:11;97319.25;;;7.86;56.15
75013;BME280;63567;49.956;20.130;2023-05-10T00:14:37;97317.94;;;7.82;56.20
75013;BME280;63567;49.956;20.130;2023-05-10T00:17:02;97312.19;;;7.78;56.54
75013;BME280;63567;49.956;20.130;2023-05-10T00:19:27;97305.47;;;7.76;56.25
75013;BME280;63567;49.956;20.130;2023-05-10T00:21:53;97305.81;;;7.73;56.75
75013;BME280;63567;49.956;20.130;2023-05-10T00:24:18;97305.50;;;7.68;56.75
75013;BME280;63567;49.956;20.130;2023-05-10T00:26:43;97308.44;;;7.65;56.46
75013;BME280;63567;49.956;20.130;2023-05-10T00:29:09;97302.53;;;7.63;56.85
75013;BME280;63567;49.956;20.130;2023-05-10T00:31:35;97300.25;;;7.59;56.71
75013;BME280;63567;49.956;20.130;2023-05-10T00:34:00;97304.81;;;7.57;56.95
75013;BME280;63567;49.956;20.130;2023-05-10T00:36:25;97295.16;;;7.58;56.61
75013;BME280;63567;49.956;20.130;2023-05-10T00:38:51;97305.78;;;7.56;56.66
75013;BME280;63567;49.956;20.130;2023-05-10T00:41:16;97300.72;;;7.55;56.86
75013;BME280;63567;49.956;20.130;2023-05-10T00:43:42;97308.75;;;7.53;57.00
75013;BME280;63567;49.956;20.130;2023-05-10T00:46:07;97301.53;;;7.47;57.00
75013;BME280;63567;49.956;20.130;2023-05-10T00:48:33;97301.53;;;7.47;57.44
75013;BME280;63567;49.956;20.130;2023-05-10T00:50:59;97304.47;;;7.44;57.40
75013;BME280;63567;49.956;20.130;2023-05-10T00:53:24;97300.19;;;7.43;57.47
75013;BME280;63567;49.956;20.130;2023-05-10T00:55:50;97300.53;;;7.40;57.41
75013;BME280;63567;49.956;20.130;2023-05-10T00:58:16;97300.53;;;7.40;56.95
75013;BME280;63567;49.956;20.130;2023-05-10T01:00:42;97294.63;;;7.38;57.42
75013;BME280;63567;49.956;20.130;2023-05-10T01:03:11;97286.13;;;7.36;57.68
75013;BME280;63567;49.956;20.130;2023-05-10T01:05:37;97287.94;;;7.35;57.23
75013;BME280;63567;49.956;20.130;2023-05-10T01:08:02;97292.97;;;7.37;57.10
75013;BME280;63567;49.956;20.130;2023-05-10T01:10:28;97283.16;;;7.31;57.58
75013;BME280;63567;49.956;20.130;2023-05-10T01:12:54;97277.75;;;7.32;57.41
75013;BME280;63567;49.956;20.130;2023-05-10T01:15:20;97282.03;;;7.33;57.84
75013;BME280;63567;49.956;20.130;2023-05-10T01:17:46;97279.56;;;7.32;57.92
75013;BME280;63567;49.956;20.130;2023-05-10T01:20:14;97277.28;;;7.29;57.77
75013;BME280;63567;49.956;20.130;2023-05-10T01:23:11;97276.28;;;7.30;57.99
75013;BME280;63567;49.956;20.130;2023-05-10T01:26:22;97275.63;;;7.28;57.96
75013;BME280;63567;49.956;20.130;2023-05-10T01:28:58;97270.72;;;7.25;57.92
75013;BME280;63567;49.956;20.130;2023-05-10T01:34:21;97270.88;;;7.23;58.13
75013;BME280;63567;49.956;20.130;2023-05-10T01:36:55;97264.44;;;7.17;58.15
75013;BME280;63567;49.956;20.130;2023-05-10T01:39:28;97265.44;;;7.16;58.55
75013;BME280;63567;49.956;20.130;2023-05-10T01:42:19;97270.34;;;7.19;58.50
75013;BME280;63567;49.956;20.130;2023-05-10T01:45:06;97266.09;;;7.18;58.45
75013;BME280;63567;49.956;20.130;2023-05-10T01:47:42;97262.81;;;7.16;58.67
75013;BME280;63567;49.956;20.130;2023-05-10T01:50:19;97264.94;;;7.13;58.87
75013;BME280;63567;49.956;20.130;2023-05-10T01:52:54;97262.16;;;7.14;58.46
75013;BME280;63567;49.956;20.130;2023-05-10T01:55:21;97258.88;;;7.12;58.68
75013;BME280;63567;49.956;20.130;2023-05-10T01:57:51;97258.06;;;7.12;58.49
75013;BME280;63567;49.956;20.130;2023-05-10T02:00:18;97250.88;;;7.14;58.52
75013;BME280;63567;49.956;20.130;2023-05-10T02:02:46;97252.03;;;7.11;58.60
75013;BME280;63567;49.956;20.130;2023-05-10T02:05:14;97248.25;;;7.14;58.83
75013;BME280;63567;49.956;20.130;2023-05-10T02:07:40;97243.97;;;7.13;58.52
75013;BME280;63567;49.956;20.130;2023-05-10T02:10:09;97240.88;;;7.09;59.21
75013;BME280;63567;49.956;20.130;2023-05-10T02:12:36;97238.25;;;7.09;59.08
75013;BME280;63567;49.956;20.130;2023-05-10T02:15:04;97239.22;;;7.08;59.24
75013;BME280;63567;49.956;20.130;2023-05-10T02:17:32;97231.53;;;7.07;59.16
75013;BME280;63567;49.956;20.130;2023-05-10T02:19:58;97236.59;;;7.08;58.90
75013;BME280;63567;49.956;20.130;2023-05-10T02:22:26;97227.94;;;7.08;59.14
75013;BME280;63567;49.956;20.130;2023-05-10T02:24:51;97228.75;;;7.08;58.88
75013;BME280;63567;49.956;20.130;2023-05-10T02:27:19;97226.47;;;7.05;58.81
75013;BME280;63567;49.956;20.130;2023-05-10T02:29:45;97226.63;;;7.04;59.23
75013;BME280;63567;49.956;20.130;2023-05-10T02:32:12;97236.94;;;7.05;58.98
75013;BME280;63567;49.956;20.130;2023-05-10T02:34:38;97228.44;;;7.03;59.20
75013;BME280;63567;49.956;20.130;2023-05-10T02:37:04;97222.38;;;7.03;59.13
75013;BME280;63567;49.956;20.130;2023-05-10T02:39:31;97225.00;;;7.03;59.16
75013;BME280;63567;49.956;20.130;2023-05-10T02:41:57;97222.53;;;7.01;59.36
75013;BME280;63567;49.956;20.130;2023-05-10T02:44:23;97225.81;;;7.03;59.04
75013;BME280;63567;49.956;20.130;2023-05-10T02:46:51;97225.16;;;7.01;59.09
75013;BME280;63567;49.956;20.130;2023-05-10T02:49:18;97229.56;;;7.01;59.22
75013;BME280;63567;49.956;20.130;2023-05-10T02:51:47;97222.16;;;6.96;59.54
75013;BME280;63567;49.956;20.130;2023-05-10T02:54:18;97228.41;;;6.95;59.54
75013;BME280;63567;49.956;20.130;2023-05-10T02:56:51;97226.75;;;6.94;59.77
75013;BME280;63567;49.956;20.130;2023-05-10T02:59:17;97229.69;;;6.91;59.49
75013;BME280;63567;49.956;20.130;2023-05-10T03:01:43;97229.03;;;6.89;59.78
75013;BME280;63567;49.956;20.130;2023-05-10T03:04:08;97227.22;;;6.89;59.71
75013;BME280;63567;49.956;20.130;2023-05-10T03:06:33;97223.00;;;6.88;59.47
75013;BME280;63567;49.956;20.130;2023-05-10T03:08:59;97232.00;;;6.86;59.85
75013;BME280;63567;49.956;20.130;2023-05-10T03:19:56;97230.81;;;6.80;60.25
75013;BME280;63567;49.956;20.130;2023-05-10T03:22:30;97226.88;;;6.76;60.25
75013;BME280;63567;49.956;20.130;2023-05-10T03:24:56;97220.50;;;6.78;60.39
75013;BME280;63567;49.956;20.130;2023-05-10T03:27:25;97223.94;;;6.79;60.13
75013;BME280;63567;49.956;20.130;2023-05-10T03:29:52;97224.25;;;6.76;60.25
75013;BME280;63567;49.956;20.130;2023-05-10T03:32:18;97221.63;;;6.76;60.34
75013;BME280;63567;49.956;20.130;2023-05-10T03:34:43;97224.91;;;6.78;60.28
75013;BME280;63567;49.956;20.130;2023-05-10T03:37:09;97202.97;;;6.71;60.52
75013;BME280;63567;49.956;20.130;2023-05-10T03:39:35;97223.94;;;6.79;60.28
75013;BME280;63567;49.956;20.130;2023-05-10T03:42:00;97222.16;;;6.79;60.55
75013;BME280;63567;49.956;20.130;2023-05-10T03:44:25;97210.03;;;6.78;60.41
75013;BME280;63567;49.956;20.130;2023-05-10T03:46:51;97213.63;;;6.77;60.75
75013;BME280;63567;49.956;20.130;2023-05-10T03:49:16;97210.19;;;6.77;60.55
75013;BME280;63567;49.956;20.130;2023-05-10T03:51:41;97209.06;;;6.79;60.82
75013;BME280;63567;49.956;20.130;2023-05-10T03:54:07;97214.97;;;6.82;60.73
75013;BME280;63567;49.956;20.130;2023-05-10T03:56:32;97215.63;;;6.84;60.40
75013;BME280;63567;49.956;20.130;2023-05-10T03:58:57;97213.00;;;6.84;60.74
75013;BME280;63567;49.956;20.130;2023-05-10T04:01:23;97213.81;;;6.84;60.63
75013;BME280;63567;49.956;20.130;2023-05-10T04:03:48;97204.97;;;6.85;60.54
75013;BME280;63567;49.956;20.130;2023-05-10T04:06:14;97212.66;;;6.87;60.88
75013;BME280;63567;49.956;20.130;2023-05-10T04:08:39;97222.00;;;6.89;60.58
75013;BME280;63567;49.956;20.130;2023-05-10T04:11:11;97209.75;;;6.90;60.93
75013;BME280;63567;49.956;20.130;2023-05-10T04:13:37;97206.78;;;6.93;60.88
75013;BME280;63567;49.956;20.130;2023-05-10T04:16:03;97217.94;;;6.95;60.92
75013;BME280;63567;49.956;20.130;2023-05-10T04:18:29;97217.59;;;6.98;61.01
75013;BME280;63567;49.956;20.130;2023-05-10T04:20:55;97217.28;;;7.01;60.89
75013;BME280;63567;49.956;20.130;2023-05-10T04:23:20;97216.28;;;7.02;60.71
75013;BME280;63567;49.956;20.130;2023-05-10T04:25:45;97222.03;;;7.06;60.83
75013;BME280;63567;49.956;20.130;2023-05-10T04:28:11;97219.94;;;7.09;60.37
75013;BME280;63567;49.956;20.130;2023-05-10T04:30:36;97223.38;;;7.10;60.74
75013;BME280;63567;49.956;20.130;2023-05-10T04:33:02;97216.97;;;7.12;60.90
75013;BME280;63567;49.956;20.130;2023-05-10T04:35:28;97221.72;;;7.17;60.89
75013;BME280;63567;49.956;20.130;2023-05-10T04:37:53;97221.41;;;7.20;61.16
75013;BME280;63567;49.956;20.130;2023-05-10T04:40:19;97217.66;;;7.23;61.12
75013;BME280;63567;49.956;20.130;2023-05-10T04:42:45;97220.75;;;7.26;60.94
75013;BME280;63567;49.956;20.130;2023-05-10T04:45:10;97219.78;;;7.27;61.41
75013;BME280;63567;49.956;20.130;2023-05-10T04:47:36;97223.38;;;7.34;61.30
75013;BME280;63567;49.956;20.130;2023-05-10T04:50:03;97229.63;;;7.33;61.20
75013;BME280;63567;49.956;20.130;2023-05-10T04:52:28;97223.22;;;7.36;61.58
75013;BME280;63567;49.956;20.130;2023-05-10T04:54:53;97220.63;;;7.44;61.32
75013;BME280;63567;49.956;20.130;2023-05-10T04:57:19;97225.66;;;7.46;61.26
75013;BME280;63567;49.956;20.130;2023-05-10T04:59:44;97227.97;;;7.49;61.86
75013;BME280;63567;49.956;20.130;2023-05-10T05:02:10;97222.91;;;7.55;61.12
75013;BME280;63567;49.956;20.130;2023-05-10T05:04:35;97223.41;;;7.59;61.20
75013;BME280;63567;49.956;20.130;2023-05-10T05:07:00;97222.06;;;7.63;61.96
75013;BME280;63567;49.956;20.130;2023-05-10T05:09:26;97221.25;;;7.71;61.02
75013;BME280;63567;49.956;20.130;2023-05-10T05:11:51;97226.34;;;7.72;61.45
75013;BME280;63567;49.956;20.130;2023-05-10T05:14:16;97221.41;;;7.77;61.47
75013;BME280;63567;49.956;20.130;2023-05-10T05:16:42;97223.38;;;7.84;61.16
75013;BME280;63567;49.956;20.130;2023-05-10T05:19:07;97223.53;;;7.90;61.46
75013;BME280;63567;49.956;20.130;2023-05-10T05:21:32;97229.41;;;7.92;61.29
75013;BME280;63567;49.956;20.130;2023-05-10T05:23:58;97226.78;;;8.00;61.38
75013;BME280;63567;49.956;20.130;2023-05-10T05:26:23;97223.16;;;8.01;61.40
75013;BME280;63567;49.956;20.130;2023-05-10T05:28:48;97221.50;;;8.09;61.15
75013;BME280;63567;49.956;20.130;2023-05-10T05:31:16;97223.00;;;8.11;61.40
75013;BME280;63567;49.956;20.130;2023-05-10T05:33:42;97214.78;;;8.14;61.44
75013;BME280;63567;49.956;20.130;2023-05-10T05:36:08;97216.56;;;8.22;60.53
75013;BME280;63567;49.956;20.130;2023-05-10T05:38:33;97222.94;;;8.28;60.63
75013;BME280;63567;49.956;20.130;2023-05-10T05:40:59;97226.69;;;8.33;60.88
75013;BME280;63567;49.956;20.130;2023-05-10T05:43:24;97223.88;;;8.35;60.79
75013;BME280;63567;49.956;20.130;2023-05-10T05:45:52;97229.16;;;8.43;61.16
75013;BME280;63567;49.956;20.130;2023-05-10T05:48:17;97228.47;;;8.49;60.74
75013;BME280;63567;49.956;20.130;2023-05-10T05:50:42;97228.78;;;8.54;61.04
75013;BME280;63567;49.956;20.130;2023-05-10T05:53:08;97226.47;;;8.59;60.64
75013;BME280;63567;49.956;20.130;2023-05-10T05:55:33;97225.78;;;8.66;60.41
75013;BME280;63567;49.956;20.130;2023-05-10T05:57:59;97228.06;;;8.69;61.08
75013;BME280;63567;49.956;20.130;2023-05-10T06:00:24;97224.75;;;8.75;61.22
75013;BME280;63567;49.956;20.130;2023-05-10T06:02:49;97237.22;;;8.81;61.27
75013;BME280;63567;49.956;20.130;2023-05-10T06:05:15;97232.06;;;8.88;60.55
75013;BME280;63567;49.956;20.130;2023-05-10T06:07:40;97231.72;;;8.91;60.94
75013;BME280;63567;49.956;20.130;2023-05-10T06:10:07;97232.50;;;8.99;60.51
75013;BME280;63567;49.956;20.130;2023-05-10T06:12:33;97228.38;;;9.05;60.77
75013;BME280;63567;49.956;20.130;2023-05-10T06:14:58;97231.94;;;9.12;60.99
75013;BME280;63567;49.956;20.130;2023-05-10T06:17:23;97231.88;;;9.20;61.23
75013;BME280;63567;49.956;20.130;2023-05-10T06:19:50;97234.63;;;9.27;62.12
75013;BME280;63567;49.956;20.130;2023-05-10T06:22:15;97238.38;;;9.33;62.18
75013;BME280;63567;49.956;20.130;2023-05-10T06:24:41;97239.13;;;9.41;61.37
75013;BME280;63567;49.956;20.130;2023-05-10T06:27:06;97241.88;;;9.48;61.40
75013;BME280;63567;49.956;20.130;2023-05-10T06:29:32;97241.19;;;9.54;61.39
75013;BME280;63567;49.956;20.130;2023-05-10T06:31:57;97241.94;;;9.63;60.65
75013;BME280;63567;49.956;20.130;2023-05-10T06:34:24;97245.47;;;9.70;61.23
75013;BME280;63567;49.956;20.130;2023-05-10T06:36:49;97240.31;;;9.77;61.76
75013;BME280;63567;49.956;20.130;2023-05-10T06:39:14;97237.81;;;9.83;61.29
75013;BME280;63567;49.956;20.130;2023-05-10T06:41:40;97238.19;;;9.95;61.88
75013;BME280;63567;49.956;20.130;2023-05-10T06:44:05;97240.09;;;10.01;61.32
75013;BME280;63567;49.956;20.130;2023-05-10T06:46:30;97245.13;;;10.11;60.84
75013;BME280;63567;49.956;20.130;2023-05-10T06:48:56;97242.56;;;10.18;61.06
75013;BME280;63567;49.956;20.130;2023-05-10T06:51:21;97242.50;;;10.26;60.99
75013;BME280;63567;49.956;20.130;2023-05-10T06:53:47;97243.25;;;10.35;61.03
75013;BME280;63567;49.956;20.130;2023-05-10T06:56:12;97237.25;;;10.41;60.82
75013;BME280;63567;49.956;20.130;2023-05-10T06:58:38;97240.25;;;10.53;60.15
75013;BME280;63567;49.956;20.130;2023-05-10T07:01:04;97233.88;;;10.62;60.57
75013;BME280;63567;49.956;20.130;2023-05-10T07:03:30;97238.25;;;10.69;59.71
75013;BME280;63567;49.956;20.130;2023-05-10T07:06:02;97235.69;;;10.76;60.43
75013;BME280;63567;49.956;20.130;2023-05-10T07:08:32;97238.66;;;10.88;60.35
75013;BME280;63567;49.956;20.130;2023-05-10T07:11:05;97231.44;;;10.97;60.75
75013;BME280;63567;49.956;20.130;2023-05-10T07:13:35;97230.31;;;11.06;60.08
75013;BME280;63567;49.956;20.130;2023-05-10T07:16:01;97242.22;;;11.17;60.35
75013;BME280;63567;49.956;20.130;2023-05-10T07:18:31;97237.47;;;11.27;59.89
75013;BME280;63567;49.956;20.130;2023-05-10T07:20:57;97239.59;;;11.38;58.97
75013;BME280;63567;49.956;20.130;2023-05-10T07:23:22;97250.47;;;11.50;58.95
75013;BME280;63567;49.956;20.130;2023-05-10T07:25:49;97245.88;;;11.59;59.05
75013;BME280;63567;49.956;20.130;2023-05-10T07:28:16;97242.91;;;11.68;58.49
75013;BME280;63567;49.956;20.130;2023-05-10T07:30:42;97245.44;;;11.77;57.20
75013;BME280;63567;49.956;20.130;2023-05-10T07:33:09;97239.22;;;11.84;57.33
75013;BME280;63567;49.956;20.130;2023-05-10T07:35:34;97245.19;;;11.93;57.37
75013;BME280;63567;49.956;20.130;2023-05-10T07:38:00;97244.03;;;12.02;57.25
75013;BME280;63567;49.956;20.130;2023-05-10T07:40:26;97241.25;;;12.10;57.30
75013;BME280;63567;49.956;20.130;2023-05-10T07:42:51;97234.19;;;12.18;57.76
75013;BME280;63567;49.956;20.130;2023-05-10T07:45:17;97235.06;;;12.31;58.11
75013;BME280;63567;49.956;20.130;2023-05-10T07:47:43;97227.81;;;12.40;57.44
75013;BME280;63567;49.956;20.130;2023-05-10T07:50:08;97237.22;;;12.49;56.87
75013;BME280;63567;49.956;20.130;2023-05-10T07:52:34;97234.03;;;12.61;56.65
75013;BME280;63567;49.956;20.130;2023-05-10T07:54:59;97231.84;;;12.71;55.75
75013;BME280;63567;49.956;20.130;2023-05-10T07:57:24;97236.56;;;12.82;56.25
75013;BME280;63567;49.956;20.130;2023-05-10T07:59:50;97229.69;;;12.94;56.49
75013;BME280;63567;49.956;20.130;2023-05-10T08:02:15;97236.66;;;13.09;56.81
75013;BME280;63567;49.956;20.130;2023-05-10T08:04:40;97232.00;;;13.24;56.36
75013;BME280;63567;49.956;20.130;2023-05-10T08:07:06;97232.91;;;13.38;56.58
75013;BME280;63567;49.956;20.130;2023-05-10T08:09:32;97232.69;;;13.53;56.32
75013;BME280;63567;49.956;20.130;2023-05-10T08:11:57;97233.13;;;13.70;56.27
75013;BME280;63567;49.956;20.130;2023-05-10T08:14:24;97229.66;;;13.83;54.61
75013;BME280;63567;49.956;20.130;2023-05-10T08:16:49;97234.34;;;13.94;54.26
75013;BME280;63567;49.956;20.130;2023-05-10T08:19:15;97239.63;;;14.07;52.92
75013;BME280;63567;49.956;20.130;2023-05-10T08:21:44;97230.25;;;14.18;54.06
75013;BME280;63567;49.956;20.130;2023-05-10T08:24:09;97233.09;;;14.30;53.15
75013;BME280;63567;49.956;20.130;2023-05-10T08:26:35;97237.13;;;14.46;53.66
75013;BME280;63567;49.956;20.130;2023-05-10T08:29:00;97234.69;;;14.57;52.66
75013;BME280;63567;49.956;20.130;2023-05-10T08:31:25;97226.09;;;14.69;52.97
75013;BME280;63567;49.956;20.130;2023-05-10T08:33:50;97225.00;;;14.83;52.77
75013;BME280;63567;49.956;20.130;2023-05-10T08:36:17;97232.09;;;14.96;52.50
75013;BME280;63567;49.956;20.130;2023-05-10T08:38:55;97235.88;;;15.13;51.48
75013;BME280;63567;49.956;20.130;2023-05-10T08:41:21;97234.59;;;15.29;50.05
75013;BME280;63567;49.956;20.130;2023-05-10T08:43:47;97234.06;;;15.46;51.46
75013;BME280;63567;49.956;20.130;2023-05-10T08:46:16;97223.94;;;15.61;52.54
75013;BME280;63567;49.956;20.130;2023-05-10T08:48:44;97231.63;;;15.76;51.47
75013;BME280;63567;49.956;20.130;2023-05-10T08:51:13;97242.16;;;15.89;51.27
75013;BME280;63567;49.956;20.130;2023-05-10T08:53:39;97233.25;;;16.02;49.42
75013;BME280;63567;49.956;20.130;2023-05-10T08:56:04;97236.03;;;16.14;51.70
75013;BME280;63567;49.956;20.130;2023-05-10T08:58:30;97237.09;;;16.31;49.41
75013;BME280;63567;49.956;20.130;2023-05-10T09:00:56;97238.75;;;16.51;50.35
75013;BME280;63567;49.956;20.130;2023-05-10T09:03:22;97233.66;;;16.68;49.84
75013;BME280;63567;49.956;20.130;2023-05-10T09:05:50;97237.81;;;16.82;49.19
75013;BME280;63567;49.956;20.130;2023-05-10T09:08:17;97241.13;;;16.96;49.29
75013;BME280;63567;49.956;20.130;2023-05-10T09:10:44;97231.13;;;17.10;47.88
75013;BME280;63567;49.956;20.130;2023-05-10T09:13:12;97226.78;;;17.27;47.35
75013;BME280;63567;49.956;20.130;2023-05-10T09:15:39;97231.94;;;17.40;46.12
75013;BME280;63567;49.956;20.130;2023-05-10T09:18:04;97233.38;;;17.55;44.53
75013;BME280;63567;49.956;20.130;2023-05-10T09:20:30;97227.16;;;17.73;46.02
75013;BME280;63567;49.956;20.130;2023-05-10T09:22:56;97228.34;;;17.89;45.59
75013;BME280;63567;49.956;20.130;2023-05-10T09:25:21;97230.94;;;18.07;43.21
75013;BME280;63567;49.956;20.130;2023-05-10T09:27:48;97225.25;;;18.27;45.86
75013;BME280;63567;49.956;20.130;2023-05-10T09:30:23;97228.59;;;18.46;45.30
75013;BME280;63567;49.956;20.130;2023-05-10T09:32:49;97217.78;;;18.64;47.09
75013;BME280;63567;49.956;20.130;2023-05-10T09:35:17;97226.69;;;18.82;46.68
75013;BME280;63567;49.956;20.130;2023-05-10T09:37:45;97229.53;;;19.04;45.75
75013;BME280;63567;49.956;20.130;2023-05-10T09:40:18;97231.53;;;19.25;47.59
75013;BME280;63567;49.956;20.130;2023-05-10T09:43:00;97234.91;;;19.49;43.49
75013;BME280;63567;49.956;20.130;2023-05-10T09:45:28;97230.53;;;19.72;44.51
75013;BME280;63567;49.956;20.130;2023-05-10T09:47:54;97223.56;;;19.88;40.25
75013;BME280;63567;49.956;20.130;2023-05-10T09:50:20;97234.34;;;20.10;46.27
75013;BME280;63567;49.956;20.130;2023-05-10T09:52:59;97230.16;;;20.36;40.41
75013;BME280;63567;49.956;20.130;2023-05-10T09:55:45;97228.69;;;20.62;43.32
75013;BME280;63567;49.956;20.130;2023-05-10T09:58:13;97222.53;;;20.84;43.22
75013;BME280;63567;49.956;20.130;2023-05-10T10:00:40;97215.53;;;21.05;40.86
75013;BME280;63567;49.956;20.130;2023-05-10T10:03:12;97225.38;;;21.21;41.51
75013;BME280;63567;49.956;20.130;2023-05-10T10:05:40;97224.22;;;21.39;40.29
75013;BME280;63567;49.956;20.130;2023-05-10T10:08:05;97216.38;;;21.60;44.52
75013;BME280;63567;49.956;20.130;2023-05-10T10:10:32;97214.69;;;21.81;43.91
75013;BME280;63567;49.956;20.130;2023-05-10T10:12:57;97216.22;;;22.04;41.55
75013;BME280;63567;49.956;20.130;2023-05-10T10:15:24;97212.13;;;22.28;44.91
75013;BME280;63567;49.956;20.130;2023-05-10T10:17:50;97209.28;;;22.50;38.81
75013;BME280;63567;49.956;20.130;2023-05-10T10:20:17;97216.63;;;22.70;44.45
75013;BME280;63567;49.956;20.130;2023-05-10T10:22:43;97214.34;;;22.94;45.81
75013;BME280;63567;49.956;20.130;2023-05-10T10:25:12;97210.13;;;23.14;42.71
75013;BME280;63567;49.956;20.130;2023-05-10T10:35:38;97202.72;;;23.93;39.19
75013;BME280;63567;49.956;20.130;2023-05-10T10:38:04;97198.09;;;24.09;36.55
75013;BME280;63567;49.956;20.130;2023-05-10T10:40:33;97207.25;;;24.23;38.73
75013;BME280;63567;49.956;20.130;2023-05-10T10:43:22;97199.94;;;24.44;37.73
75013;BME280;63567;49.956;20.130;2023-05-10T10:48:39;97199.00;;;24.85;37.46
75013;BME280;63567;49.956;20.130;2023-05-10T10:51:04;97201.34;;;25.01;36.54
75013;BME280;63567;49.956;20.130;2023-05-10T10:53:30;97187.28;;;25.20;35.33
75013;BME280;63567;49.956;20.130;2023-05-10T10:58:33;97185.22;;;25.46;34.19
75013;BME280;63567;49.956;20.130;2023-05-10T11:01:17;97187.22;;;25.65;33.54
75013;BME280;63567;49.956;20.130;2023-05-10T11:06:36;97174.34;;;25.91;32.06
75013;BME280;63567;49.956;20.130;2023-05-10T11:09:08;97175.06;;;26.01;32.53
75013;BME280;63567;49.956;20.130;2023-05-10T11:11:34;97182.84;;;26.08;32.89
75013;BME280;63567;49.956;20.130;2023-05-10T11:14:05;97180.19;;;26.03;30.84
75013;BME280;63567;49.956;20.130;2023-05-10T11:16:41;97174.28;;;26.01;30.21
75013;BME280;63567;49.956;20.130;2023-05-10T11:19:09;97174.97;;;26.12;30.20
75013;BME280;63567;49.956;20.130;2023-05-10T11:24:28;97169.59;;;26.36;30.35
75013;BME280;63567;49.956;20.130;2023-05-10T11:26:53;97168.03;;;26.54;29.62
75013;BME280;63567;49.956;20.130;2023-05-10T11:29:19;97159.78;;;26.69;29.69
75013;BME280;63567;49.956;20.130;2023-05-10T11:31:46;97168.19;;;26.87;29.45
75013;BME280;63567;49.956;20.130;2023-05-10T11:34:23;97169.63;;;27.03;29.85
75013;BME280;63567;49.956;20.130;2023-05-10T11:36:53;97163.16;;;27.23;29.21
75013;BME280;63567;49.956;20.130;2023-05-10T11:39:19;97157.22;;;27.40;28.73
75013;BME280;63567;49.956;20.130;2023-05-10T11:41:48;97166.41;;;27.58;29.20
75013;BME280;63567;49.956;20.130;2023-05-10T11:44:13;97162.03;;;27.76;27.79
75013;BME280;63567;49.956;20.130;2023-05-10T11:46:39;97154.00;;;27.90;27.24
75013;BME280;63567;49.956;20.130;2023-05-10T11:49:06;97153.13;;;28.08;27.98
75013;BME280;63567;49.956;20.130;2023-05-10T11:51:34;97156.88;;;28.26;26.85
75013;BME280;63567;49.956;20.130;2023-05-10T11:54:08;97170.94;;;28.42;25.75
75013;BME280;63567;49.956;20.130;2023-05-10T11:56:34;97160.81;;;28.61;26.70
75013;BME280;63567;49.956;20.130;2023-05-10T11:59:00;97157.66;;;28.82;26.51
75013;BME280;63567;49.956;20.130;2023-05-10T12:01:27;97158.84;;;29.03;27.02
75013;BME280;63567;49.956;20.130;2023-05-10T12:03:55;97142.75;;;29.21;26.50
75013;BME280;63567;49.956;20.130;2023-05-10T12:06:21;97150.72;;;29.40;25.54
75013;BME280;63567;49.956;20.130;2023-05-10T12:08:48;97156.78;;;29.59;26.24
75013;BME280;63567;49.956;20.130;2023-05-10T12:11:17;97137.72;;;29.73;26.15
75013;BME280;63567;49.956;20.130;2023-05-10T12:13:43;97152.53;;;29.89;26.22
75013;BME280;63567;49.956;20.130;2023-05-10T12:16:19;97145.41;;;30.02;24.12
75013;BME280;63567;49.956;20.130;2023-05-10T12:18:48;97152.03;;;30.19;24.70
75013;BME280;63567;49.956;20.130;2023-05-10T12:21:15;97149.06;;;30.29;24.85
75013;BME280;63567;49.956;20.130;2023-05-10T12:23:41;97148.59;;;30.36;24.55
75013;BME280;63567;49.956;20.130;2023-05-10T12:26:08;97136.97;;;30.44;24.12
75013;BME280;63567;49.956;20.130;2023-05-10T12:28:34;97147.22;;;30.56;23.90
75013;BME280;63567;49.956;20.130;2023-05-10T12:31:02;97137.50;;;30.63;23.50
75013;BME280;63567;49.956;20.130;2023-05-10T12:33:35;97142.16;;;30.71;23.20
75013;BME280;63567;49.956;20.130;2023-05-10T12:36:02;97140.94;;;30.86;23.58
75013;BME280;63567;49.956;20.130;2023-05-10T12:38:34;97135.66;;;30.99;23.22
75013;BME280;63567;49.956;20.130;2023-05-10T12:41:05;97135.66;;;31.07;23.25
75013;BME280;63567;49.956;20.130;2023-05-10T12:43:31;97139.38;;;31.20;23.36
75013;BME280;63567;49.956;20.130;2023-05-10T12:45:57;97121.75;;;31.35;23.18
75013;BME280;63567;49.956;20.130;2023-05-10T12:48:22;97134.59;;;31.43;22.56
75013;BME280;63567;49.956;20.130;2023-05-10T12:50:47;97121.75;;;31.52;22.91
75013;BME280;63567;49.956;20.130;2023-05-10T12:53:14;97124.94;;;31.63;22.20
75013;BME280;63567;49.956;20.130;2023-05-10T12:55:41;97130.53;;;31.76;22.14
75013;BME280;63567;49.956;20.130;2023-05-10T12:58:06;97128.09;;;31.91;22.16
75013;BME280;63567;49.956;20.130;2023-05-10T13:00:31;97124.25;;;32.01;21.78
75013;BME280;63567;49.956;20.130;2023-05-10T13:02:57;97118.81;;;32.01;22.16
75013;BME280;63567;49.956;20.130;2023-05-10T13:05:22;97110.91;;;32.08;21.62
75013;BME280;63567;49.956;20.130;2023-05-10T13:07:47;97116.19;;;32.13;22.29
75013;BME280;63567;49.956;20.130;2023-05-10T13:10:13;97109.22;;;32.25;21.66
75013;BME280;63567;49.956;20.130;2023-05-10T13:12:39;97111.63;;;32.26;21.79
75013;BME280;63567;49.956;20.130;2023-05-10T13:15:04;97107.31;;;32.25;21.08
75013;BME280;63567;49.956;20.130;2023-05-10T13:17:30;97095.91;;;32.32;22.15
75013;BME280;63567;49.956;20.130;2023-05-10T13:19:55;97101.47;;;32.36;21.15
75013;BME280;63567;49.956;20.130;2023-05-10T13:22:21;97100.56;;;32.31;20.34
75013;BME280;63567;49.956;20.130;2023-05-10T13:24:46;97093.28;;;32.36;20.53